Time;durP1;ratioP1;P1;durP2;ratioP2;P2;SDS_P1;SDS_P2;PMS_P1;PMS_P2;Temp;Humidity;BMP_temperature;BMP_pressure;BME280_temperature;BME280_humidity;BME280_pressure;Samples;Min_cycle;Max_cycle;Signal;HPM_P1;HPM_P2
2023/10/11 00:02:56;;;;;;;24.90;15.77;;;;;;;-143.29;100.00;62188.47;5050702;28;20033;-93
2023/10/11 00:05:23;;;;;;;29.73;16.40;;;;;;;-143.29;100.00;62188.47;5033288;28;20032;-93
2023/10/11 00:07:49;;;;;;;22.13;14.43;;;;;;;-143.29;100.00;62188.47;5051782;28;20025;-93
2023/10/11 00:10:22;;;;;;;22.90;13.82;;;;;;;-143.29;100.00;62188.47;5050973;28;20036;-92
2023/10/11 00:12:50;;;;;;;21.17;14.48;;;;;;;-143.29;100.00;62188.47;5050811;28;20033;-92
2023/10/11 00:15:18;;;;;;;21.95;13.43;;;;;;;-143.29;100.00;62188.47;5051731;28;20029;-93
2023/10/11 00:17:46;;;;;;;26.05;15.32;;;;;;;-143.29;100.00;62188.47;5033292;28;20029;-92
2023/10/11 00:20:28;;;;;;;21.77;13.63;;;;;;;-143.29;100.00;62188.47;5050393;28;20140;-92
2023/10/11 00:22:53;;;;;;;;;;;;;;;-143.29;100.00;62188.47;5034105;28;20068;-93
2023/10/11 00:25:25;;;;;;;27.60;14.07;;;;;;;-143.29;100.00;62188.47;5051261;28;20482;-92
2023/10/11 00:27:58;;;;;;;26.73;14.30;;;;;;;-143.29;100.00;62188.47;5036946;28;20024;-93
2023/10/11 00:30:25;;;;;;;28.70;15.75;;;;;;;-143.29;100.00;62188.47;5071730;28;20080;-92
2023/10/11 00:32:52;;;;;;;26.05;14.35;;;;;;;-143.29;100.00;62188.47;5071752;28;20021;-92
2023/10/11 00:35:18;;;;;;;26.45;14.75;;;;;;;-143.29;100.00;62188.47;5053568;28;20021;-92
2023/10/11 00:37:49;;;;;;;21.90;12.98;;;;;;;-143.29;100.00;62188.47;5053712;28;20047;-93
2023/10/11 00:40:24;;;;;;;22.33;13.07;;;;;;;-143.29;100.00;62188.47;5053791;28;20039;-92
2023/10/11 00:42:50;;;;;;;20.40;12.73;;;;;;;-143.29;100.00;62188.47;5042949;28;20040;-93
2023/10/11 00:45:16;;;;;;;22.73;13.55;;;;;;;-143.29;100.00;62188.47;5071315;28;20032;-93
2023/10/11 00:47:45;;;;;;;26.58;14.60;;;;;;;-143.29;100.00;62188.47;5071485;28;20078;-92
2023/10/11 00:50:16;;;;;;;19.65;12.82;;;;;;;-143.29;100.00;62188.47;5046434;28;20033;-93
2023/10/11 00:52:43;;;;;;;22.73;13.00;;;;;;;-143.29;100.00;62188.47;5051368;28;20520;-92
2023/10/11 00:55:18;;;;;;;19.65;12.35;;;;;;;-143.29;100.00;62188.47;5033569;28;20395;-93
2023/10/11 00:57:48;;;;;;;22.30;12.85;;;;;;;-143.29;100.00;62188.47;5050143;28;20079;-93
2023/10/11 01:00:16;;;;;;;22.17;13.68;;;;;;;-143.29;100.00;62188.47;5051871;28;20372;-92
2023/10/11 01:02:45;;;;;;;22.30;13.40;;;;;;;-143.29;100.00;62188.47;5037116;28;20025;-93
2023/10/11 01:05:12;;;;;;;26.55;13.75;;;;;;;-143.29;100.00;62188.47;5054026;28;20032;-92
2023/10/11 01:07:38;;;;;;;24.05;13.10;;;;;;;-143.29;100.00;62188.47;5054953;28;20091;-94
2023/10/11 01:10:06;;;;;;;21.05;12.73;;;;;;;-143.29;100.00;62188.47;5055142;28;20474;-92
2023/10/11 01:12:32;;;;;;;19.00;10.68;;;;;;;-143.29;100.00;62188.47;5036263;28;20098;-92
2023/10/11 01:14:58;;;;;;;17.55;10.50;;;;;;;-143.29;100.00;62188.47;5055089;28;20108;-92
2023/10/11 01:17:25;;;;;;;18.48;11.20;;;;;;;-143.29;100.00;62188.47;5036580;28;20462;-93
2023/10/11 01:19:51;;;;;;;20.88;11.68;;;;;;;-143.29;100.00;62188.47;5054787;28;20028;-94
2023/10/11 01:22:21;;;;;;;15.43;9.70;;;;;;;-143.29;100.00;62188.47;5055002;28;20543;-93
2023/10/11 01:24:47;;;;;;;18.15;9.63;;;;;;;-143.29;100.00;62188.47;5037251;28;20033;-93
2023/10/11 01:27:16;;;;;;;13.32;9.63;;;;;;;-143.29;100.00;62188.47;5038991;28;20086;-94
2023/10/11 01:29:42;;;;;;;14.85;9.52;;;;;;;-143.29;100.00;62188.47;5053723;28;20040;-93
2023/10/11 01:32:07;;;;;;;20.05;9.38;;;;;;;-143.29;100.00;62188.47;5036297;28;20423;-92
2023/10/11 01:34:33;;;;;;;17.88;9.95;;;;;;;-143.29;100.00;62188.47;5054802;28;20017;-92
2023/10/11 01:36:59;;;;;;;18.35;10.27;;;;;;;-143.29;100.00;62188.47;5036412;28;20759;-93
2023/10/11 01:39:24;;;;;;;17.70;9.95;;;;;;;-143.29;100.00;62188.47;5054497;28;20032;-91
2023/10/11 01:41:54;;;;;;;19.85;11.23;;;;;;;-143.29;100.00;62188.47;5054489;28;20021;-93
2023/10/11 01:44:22;;;;;;;20.88;10.68;;;;;;;-143.29;100.00;62188.47;5056038;28;20025;-93
2023/10/11 01:46:48;;;;;;;21.27;12.32;;;;;;;-143.29;100.00;62188.47;5036747;28;20383;-93
2023/10/11 01:49:14;;;;;;;23.33;11.65;;;;;;;-143.29;100.00;62188.47;5036725;28;20027;-93
2023/10/11 01:51:46;;;;;;;20.33;12.27;;;;;;;-143.29;100.00;62188.47;5054016;28;20111;-93
2023/10/11 01:54:11;;;;;;;;;;;;;;;-143.29;100.00;62188.47;5050420;28;20070;-93
2023/10/11 01:56:40;;;;;;;18.13;11.50;;;;;;;-143.29;100.00;62188.47;5035968;28;19917;-93
2023/10/11 01:59:05;;;;;;;20.50;11.55;;;;;;;-143.29;100.00;62188.47;5054171;28;20037;-93
2023/10/11 02:01:38;;;;;;;22.13;11.52;;;;;;;-143.29;100.00;62188.47;5054135;28;20033;-93
2023/10/11 02:04:10;;;;;;;23.25;12.43;;;;;;;-143.29;100.00;62188.47;5054270;28;20029;-95
2023/10/11 02:06:38;;;;;;;15.85;10.57;;;;;;;-143.29;100.00;62188.47;5054333;28;20025;-94
2023/10/11 02:09:03;;;;;;;20.08;12.00;;;;;;;-143.29;100.00;62188.47;5035221;28;20033;-93
2023/10/11 02:11:31;;;;;;;20.27;13.25;;;;;;;-143.29;100.00;62188.47;5052484;28;20395;-93
2023/10/11 02:13:58;;;;;;;25.00;12.70;;;;;;;-143.29;100.00;62188.47;5053652;28;20033;-94
2023/10/11 02:16:32;;;;;;;17.80;12.32;;;;;;;-143.29;100.00;62188.47;5054059;28;20029;-92
2023/10/11 02:19:00;;;;;;;16.45;10.80;;;;;;;-143.29;100.00;62188.47;5053897;28;20455;-92
2023/10/11 02:21:29;;;;;;;19.15;11.25;;;;;;;-143.29;100.00;62188.47;5035959;28;20025;-92
2023/10/11 02:23:56;;;;;;;17.73;11.90;;;;;;;-143.29;100.00;62188.47;5053656;28;20529;-92
2023/10/11 02:26:28;;;;;;;17.02;10.35;;;;;;;-143.29;100.00;62188.47;5034756;28;20036;-92
2023/10/11 02:28:53;;;;;;;20.85;11.15;;;;;;;-143.29;100.00;62188.47;5051933;28;20076;-92
2023/10/11 02:31:25;;;;;;;18.30;11.75;;;;;;;-143.29;100.00;62188.47;5042618;28;20037;-92
2023/10/11 02:33:51;;;;;;;;;;;;;;;-143.29;100.00;62188.47;5054066;28;20029;-92
2023/10/11 02:36:18;;;;;;;17.73;11.00;;;;;;;-143.29;100.00;62188.47;5055071;28;19916;-92
2023/10/11 02:38:50;;;;;;;18.85;11.13;;;;;;;-143.29;100.00;62188.47;5053299;28;20025;-93
2023/10/11 02:41:20;;;;;;;22.85;12.60;;;;;;;-143.29;100.00;62188.47;5052988;28;20036;-93
2023/10/11 02:43:49;;;;;;;23.77;12.48;;;;;;;-143.29;100.00;62188.47;5037180;28;20124;-93
2023/10/11 02:46:22;;;;;;;19.52;11.38;;;;;;;-143.29;100.00;62188.47;5052019;28;20360;-93
2023/10/11 02:49:05;;;;;;;21.33;11.38;;;;;;;-143.29;100.00;62188.47;5053671;28;20051;-93
2023/10/11 02:51:33;;;;;;;19.17;12.00;;;;;;;-143.29;100.00;62188.47;5052903;28;20029;-93
2023/10/11 02:54:04;;;;;;;24.55;12.25;;;;;;;-143.29;100.00;62188.47;5052842;28;20074;-92
2023/10/11 02:56:39;;;;;;;25.25;13.40;;;;;;;-143.29;100.00;62188.47;5053217;28;20052;-93
2023/10/11 02:59:07;;;;;;;20.13;11.13;;;;;;;-143.29;100.00;62188.47;5052274;28;20029;-92
2023/10/11 03:01:32;;;;;;;17.80;11.75;;;;;;;-143.29;100.00;62188.47;5052658;28;20041;-92
2023/10/11 03:03:57;;;;;;;16.00;11.02;;;;;;;-143.29;100.00;62188.47;5052916;28;20070;-92
2023/10/11 03:06:27;;;;;;;16.63;11.05;;;;;;;-143.29;100.00;62188.47;5052831;28;20112;-94
2023/10/11 03:08:53;;;;;;;19.88;11.23;;;;;;;-143.29;100.00;62188.47;5053021;28;20108;-93
2023/10/11 03:11:18;;;;;;;22.80;11.68;;;;;;;-143.29;100.00;62188.47;5034974;28;20154;-92
2023/10/11 03:13:44;;;;;;;19.90;11.70;;;;;;;-143.29;100.00;62188.47;5036964;28;20070;-92
2023/10/11 03:16:16;;;;;;;16.80;11.13;;;;;;;-143.29;100.00;62188.47;5038726;28;20029;-93
2023/10/11 03:18:42;;;;;;;16.73;11.10;;;;;;;-143.29;100.00;62188.47;5034934;28;20029;-93
2023/10/11 03:21:17;;;;;;;20.80;12.02;;;;;;;-143.29;100.00;62188.47;5034582;28;20044;-92
2023/10/11 03:23:48;;;;;;;16.73;10.40;;;;;;;-143.29;100.00;62188.47;5034064;28;20024;-92
2023/10/11 03:28:58;;;;;;;17.15;9.63;;;;;;;-143.29;100.00;62188.47;5052194;28;20387;-93
2023/10/11 03:31:27;;;;;;;18.02;10.38;;;;;;;-143.29;100.00;62188.47;5034039;28;20439;-92
2023/10/11 03:33:57;;;;;;;14.48;8.40;;;;;;;-143.29;100.00;62188.47;5052475;28;20017;-93
2023/10/11 03:36:43;;;;;;;15.98;10.18;;;;;;;-143.29;100.00;62188.47;5034644;28;20017;-93
2023/10/11 03:39:13;;;;;;;16.75;9.52;;;;;;;-143.29;100.00;62188.47;5034473;28;20471;-92
2023/10/11 03:41:45;;;;;;;20.48;9.43;;;;;;;-143.29;100.00;62188.47;5051845;28;20516;-92
2023/10/11 03:44:11;;;;;;;19.30;9.00;;;;;;;-143.29;100.00;62188.47;5034304;28;20501;-92
2023/10/11 03:46:38;;;;;;;16.08;9.15;;;;;;;-143.29;100.00;62188.47;5053692;28;20573;-93
2023/10/11 03:49:32;;;;;;;11.73;8.85;;;;;;;-143.29;100.00;62188.47;5051216;28;20368;-92
2023/10/11 03:51:57;;;;;;;18.92;8.82;;;;;;;-143.29;100.00;62188.47;5034540;28;20465;-93
2023/10/11 03:54:23;;;;;;;18.05;9.18;;;;;;;-143.29;100.00;62188.47;5052224;28;20100;-93
2023/10/11 03:56:55;;;;;;;16.25;9.30;;;;;;;-143.29;100.00;62188.47;5052072;28;20029;-92
2023/10/11 03:59:25;;;;;;;15.85;9.07;;;;;;;-143.29;100.00;62188.47;5051934;28;20021;-93
2023/10/11 04:01:51;;;;;;;13.52;8.43;;;;;;;-143.29;100.00;62188.47;5056508;28;20024;-93
2023/10/11 04:04:19;;;;;;;18.45;9.15;;;;;;;-143.29;100.00;62188.47;5039766;28;20029;-92
2023/10/11 04:06:51;;;;;;;15.43;8.60;;;;;;;-143.29;100.00;62188.47;5051920;28;20025;-92
2023/10/11 04:09:22;;;;;;;13.35;8.13;;;;;;;-143.29;100.00;62188.47;5033925;28;20462;-93
2023/10/11 04:12:00;;;;;;;18.95;9.05;;;;;;;-143.29;100.00;62188.47;5033650;28;20060;-93
2023/10/11 04:14:39;;;;;;;15.20;8.45;;;;;;;-143.29;100.00;62188.47;5052013;28;20025;-92
2023/10/11 04:19:49;;;;;;;17.77;9.13;;;;;;;-143.29;100.00;62188.47;5052723;28;20029;-93
2023/10/11 04:22:23;;;;;;;13.63;8.60;;;;;;;-143.29;100.00;62188.47;5050888;28;20032;-93
2023/10/11 04:24:53;;;;;;;14.43;8.95;;;;;;;-143.29;100.00;62188.47;5032839;28;20494;-93
2023/10/11 04:29:50;;;;;;;18.50;8.70;;;;;;;-143.29;100.00;62188.47;5050856;28;20020;-92
2023/10/11 04:35:02;;;;;;;14.75;8.27;;;;;;;-143.29;100.00;62188.47;5041507;28;20036;-93
2023/10/11 04:37:28;;;;;;;11.38;7.97;;;;;;;-143.29;100.00;62188.47;5036828;28;20025;-92
2023/10/11 04:39:57;;;;;;;19.55;8.95;;;;;;;-143.29;100.00;62188.47;5054598;28;20044;-93
2023/10/11 04:42:28;;;;;;;13.48;8.30;;;;;;;-143.29;100.00;62188.47;5054383;28;20112;-93
2023/10/11 04:44:57;;;;;;;19.25;8.60;;;;;;;-143.29;100.00;62188.47;5054728;28;20017;-92
2023/10/11 04:47:23;;;;;;;13.70;8.55;;;;;;;-143.29;100.00;62188.47;5035707;28;20078;-93
2023/10/11 04:49:52;;;;;;;15.68;8.15;;;;;;;-143.29;100.00;62188.47;5064269;28;20021;-94
2023/10/11 04:52:23;;;;;;;14.00;8.30;;;;;;;-143.29;100.00;62188.47;5036362;28;20033;-92
2023/10/11 04:54:55;;;;;;;13.80;8.30;;;;;;;-143.29;100.00;62188.47;5036401;28;20021;-93
2023/10/11 04:57:24;;;;;;;14.68;7.70;;;;;;;-143.29;100.00;62188.47;5036125;28;20033;-92
2023/10/11 04:59:58;;;;;;;14.07;7.28;;;;;;;-143.29;100.00;62188.47;5054236;28;20414;-93
2023/10/11 05:02:32;;;;;;;19.25;9.43;;;;;;;-143.29;100.00;62188.47;5036990;28;20033;-93
2023/10/11 05:05:05;;;;;;;17.00;7.78;;;;;;;-143.29;100.00;62188.47;5064958;28;20032;-92
2023/10/11 05:07:32;;;;;;;13.50;7.43;;;;;;;-143.29;100.00;62188.47;5052956;28;20040;-92
2023/10/11 05:10:22;;;;;;;13.13;8.50;;;;;;;-143.29;100.00;62188.47;5043472;28;20024;-92
2023/10/11 05:12:46;;;;;;;15.07;8.60;;;;;;;-143.29;100.00;62188.47;5073648;28;20440;-91
2023/10/11 05:15:15;;;;;;;13.68;8.25;;;;;;;-143.29;100.00;62188.47;5052937;28;20048;-92
2023/10/11 05:17:41;;;;;;;9.55;6.35;;;;;;;-143.29;100.00;62188.47;5053371;28;20025;-92
2023/10/11 05:27:49;;;;;;;15.15;7.28;;;;;;;-143.29;100.00;62188.47;5074870;28;20103;-94
2023/10/11 05:32:54;;;;;;;15.73;7.28;;;;;;;-143.29;100.00;62188.47;5054902;28;20025;-92
2023/10/11 05:51:32;;;;;;;14.27;7.85;;;;;;;-143.29;100.00;62188.47;5054627;28;20182;-94
2023/10/11 05:53:59;;;;;;;14.60;7.35;;;;;;;-143.29;100.00;62188.47;5054486;28;20060;-93
2023/10/11 05:56:25;;;;;;;12.88;6.28;;;;;;;-143.29;100.00;62188.47;5054278;28;20573;-93
2023/10/11 05:58:52;;;;;;;12.80;6.30;;;;;;;-143.29;100.00;62188.47;5053846;28;20044;-91
2023/10/11 06:01:22;;;;;;;12.60;7.20;;;;;;;-143.29;100.00;62188.47;5053897;28;20036;-92
2023/10/11 06:03:51;;;;;;;10.52;6.20;;;;;;;-143.29;100.00;62188.47;5033921;28;20083;-91
2023/10/11 06:06:38;;;;;;;16.17;7.95;;;;;;;-143.29;100.00;62188.47;5053034;28;20037;-91
2023/10/11 06:09:17;;;;;;;16.17;7.22;;;;;;;-143.29;100.00;62188.47;5035917;28;20024;-90
2023/10/11 06:11:50;;;;;;;9.43;5.70;;;;;;;-143.29;100.00;62188.47;5033720;28;20021;-91
2023/10/11 06:14:18;;;;;;;13.80;6.15;;;;;;;-143.29;100.00;62188.47;5033611;28;20479;-91
2023/10/11 06:16:57;;;;;;;14.10;6.90;;;;;;;-143.29;100.00;62188.47;5033819;28;20460;-91
2023/10/11 06:19:26;;;;;;;14.48;6.25;;;;;;;-143.29;100.00;62188.47;5038598;28;20029;-91
2023/10/11 06:21:56;;;;;;;8.75;5.40;;;;;;;-143.29;100.00;62188.47;5034373;28;20025;-90
2023/10/11 06:24:36;;;;;;;9.38;6.53;;;;;;;-143.29;100.00;62188.47;5033613;28;20475;-91
2023/10/11 06:29:53;;;;;;;10.90;5.95;;;;;;;-143.29;100.00;62188.47;5057825;28;20040;-91
2023/10/11 06:32:20;;;;;;;10.48;6.25;;;;;;;-143.29;100.00;62188.47;5064172;28;20025;-91
2023/10/11 06:34:47;;;;;;;14.95;7.00;;;;;;;-143.29;100.00;62188.47;5053546;28;20032;-91
2023/10/11 06:37:17;;;;;;;14.82;6.72;;;;;;;-143.29;100.00;62188.47;5053527;28;20029;-91
2023/10/11 06:42:13;;;;;;;13.93;7.35;;;;;;;-143.29;100.00;62188.47;5053381;28;20112;-94
2023/10/11 06:44:47;;;;;;;10.55;6.82;;;;;;;-143.29;100.00;62188.47;5058386;28;20127;-93
2023/10/11 06:47:13;;;;;;;11.60;6.30;;;;;;;-143.29;100.00;62188.47;5063428;28;20137;-92
2023/10/11 06:49:40;;;;;;;13.68;6.45;;;;;;;-143.29;100.00;62188.47;5052896;28;20490;-93
2023/10/11 06:52:07;;;;;;;19.67;8.15;;;;;;;-143.29;100.00;62188.47;5052534;28;20029;-93
2023/10/11 06:54:33;;;;;;;10.10;6.85;;;;;;;-143.29;100.00;62188.47;5053215;28;20107;-92
2023/10/11 06:56:59;;;;;;;10.75;6.35;;;;;;;-143.29;100.00;62188.47;5052843;28;20111;-92
2023/10/11 06:59:27;;;;;;;12.27;6.15;;;;;;;-143.29;100.00;62188.47;5039396;28;20066;-91
2023/10/11 07:01:53;;;;;;;18.10;7.43;;;;;;;-143.29;100.00;62188.47;5069742;28;20085;-93
2023/10/11 07:04:18;;;;;;;13.70;7.38;;;;;;;-143.29;100.00;62188.47;5072544;28;20103;-92
2023/10/11 07:06:48;;;;;;;14.68;7.53;;;;;;;-143.29;100.00;62188.47;5072630;28;20106;-92
2023/10/11 07:09:20;;;;;;;15.52;7.15;;;;;;;-143.29;100.00;62188.47;5055146;28;20029;-92
2023/10/11 07:12:18;;;;;;;10.80;6.28;;;;;;;-143.29;100.00;62188.47;5054757;28;20398;-93
2023/10/11 07:14:41;;;;;;;8.50;6.03;;;;;;;-143.29;100.00;62188.47;5059587;28;20383;-92
2023/10/11 07:17:08;;;;;;;15.73;6.68;;;;;;;-143.29;100.00;62188.47;5033009;28;20056;-92
2023/10/11 07:19:36;;;;;;;16.48;7.15;;;;;;;-143.29;100.00;62188.47;5052196;28;20028;-92
2023/10/11 07:22:03;;;;;;;20.70;7.07;;;;;;;-143.29;100.00;62188.47;5052363;28;20029;-92
2023/10/11 07:24:33;;;;;;;12.70;6.75;;;;;;;-143.29;100.00;62188.47;5052585;28;20029;-92
2023/10/11 07:27:12;;;;;;;19.98;7.40;;;;;;;-143.29;100.00;62188.47;5034830;28;20044;-93
2023/10/11 07:29:42;;;;;;;16.33;6.60;;;;;;;-143.29;100.00;62188.47;5049135;28;20036;-95
2023/10/11 07:32:12;;;;;;;15.20;6.90;;;;;;;-143.29;100.00;62188.47;5053287;28;20082;-95
2023/10/11 07:34:39;;;;;;;15.60;7.40;;;;;;;-143.29;100.00;62188.47;5052007;28;20029;-95
2023/10/11 07:37:05;;;;;;;16.60;7.13;;;;;;;-143.29;100.00;62188.47;5034492;28;20021;-95
2023/10/11 07:39:34;;;;;;;18.70;6.50;;;;;;;-143.29;100.00;62188.47;5034176;28;20108;-92
2023/10/11 07:42:07;;;;;;;12.13;7.13;;;;;;;-143.29;100.00;62188.47;5034071;28;20505;-93
2023/10/11 07:44:39;;;;;;;18.70;6.18;;;;;;;-143.29;100.00;62188.47;5052332;28;20361;-92
2023/10/11 07:47:15;;;;;;;24.73;8.50;;;;;;;-143.29;100.00;62188.47;5050032;28;20036;-92
2023/10/11 07:49:41;;;;;;;16.45;7.50;;;;;;;-143.29;100.00;62188.47;5033497;28;20175;-96
2023/10/11 07:52:09;;;;;;;15.60;7.13;;;;;;;-143.29;100.00;62188.47;5034891;28;20032;-93
2023/10/11 07:54:39;;;;;;;18.63;8.13;;;;;;;-143.29;100.00;62188.47;5052891;28;20021;-92
2023/10/11 07:57:05;;;;;;;14.32;7.10;;;;;;;-143.29;100.00;62188.47;5030145;28;20013;-92
2023/10/11 07:59:30;;;;;;;14.07;6.10;;;;;;;-143.29;100.00;62188.47;5048460;28;20486;-93
2023/10/11 08:02:07;;;;;;;17.27;6.95;;;;;;;-143.29;100.00;62188.47;5041081;28;20044;-92
2023/10/11 08:04:35;;;;;;;13.15;6.80;;;;;;;-143.29;100.00;62188.47;5051524;28;20076;-92
2023/10/11 08:07:08;;;;;;;13.93;6.43;;;;;;;-143.29;100.00;62188.47;5032296;28;20033;-94
2023/10/11 08:09:45;;;;;;;13.68;6.00;;;;;;;-143.29;100.00;62188.47;5024612;28;20020;-95
2023/10/11 08:12:14;;;;;;;13.38;6.05;;;;;;;-143.29;100.00;62188.47;5071605;28;20024;-95
2023/10/11 08:14:44;;;;;;;12.18;6.57;;;;;;;-143.29;100.00;62188.47;5054027;28;20020;-94
2023/10/11 08:17:15;;;;;;;16.55;7.47;;;;;;;-143.29;100.00;62188.47;5071324;28;20016;-94
2023/10/11 08:19:44;;;;;;;12.20;6.15;;;;;;;-143.29;100.00;62188.47;5071629;28;20028;-94
2023/10/11 08:22:16;;;;;;;10.10;6.53;;;;;;;-143.29;100.00;62188.47;5071812;28;20024;-94
2023/10/11 08:24:48;;;;;;;11.13;6.18;;;;;;;-143.29;100.00;62188.47;5043931;28;20521;-94
2023/10/11 08:27:29;;;;;;;14.07;6.47;;;;;;;-143.29;100.00;62188.47;5051741;28;20128;-95
2023/10/11 08:32:42;;;;;;;13.32;5.95;;;;;;;-143.29;100.00;62188.47;5074993;28;20020;-93
2023/10/11 08:35:09;;;;;;;11.73;5.85;;;;;;;-143.29;100.00;62188.47;5071649;28;20025;-93
2023/10/11 08:37:37;;;;;;;14.13;6.20;;;;;;;-143.29;100.00;62188.47;5073102;28;20025;-93
2023/10/11 08:40:19;;;;;;;14.80;5.82;;;;;;;-143.29;100.00;62188.47;5053758;28;20021;-91
2023/10/11 08:42:52;;;;;;;12.32;5.38;;;;;;;-143.29;100.00;62188.47;5071454;28;20059;-93
2023/10/11 08:45:48;;;;;;;16.33;5.30;;;;;;;-143.29;100.00;62188.47;5069333;28;20023;-93
2023/10/11 08:48:15;;;;;;;9.02;4.30;;;;;;;-143.29;100.00;62188.47;5068915;28;20040;-94
2023/10/11 08:50:51;;;;;;;12.05;4.85;;;;;;;-143.29;100.00;62188.47;5041632;28;20028;-94
2023/10/11 08:53:21;;;;;;;15.30;5.32;;;;;;;-143.29;100.00;62188.47;5051861;28;20024;-92
2023/10/11 08:55:54;;;;;;;9.93;4.80;;;;;;;-143.29;100.00;62188.47;5040575;28;20040;-93
2023/10/11 08:58:29;;;;;;;9.07;5.35;;;;;;;-143.29;100.00;62188.47;5071528;28;20091;-93
2023/10/11 09:00:58;;;;;;;16.90;5.03;;;;;;;-143.29;100.00;62188.47;5071453;28;20024;-93
2023/10/11 09:03:40;;;;;;;10.18;5.15;;;;;;;-143.29;100.00;62188.47;5070435;28;20025;-94
2023/10/11 09:06:18;;;;;;;;;;;;;;;-143.29;100.00;62188.47;5053659;28;20086;-93
2023/10/11 09:08:47;;;;;;;13.80;5.25;;;;;;;-143.29;100.00;62188.47;5069723;28;19920;-93
2023/10/11 09:11:28;;;;;;;9.45;4.75;;;;;;;-143.29;100.00;62188.47;5055876;28;20104;-91
2023/10/11 09:14:22;;;;;;;10.15;5.00;;;;;;;-143.29;100.00;62188.47;5050628;28;20025;-96
2023/10/11 09:16:57;;;;;;;9.15;5.43;;;;;;;-143.29;100.00;62188.47;5034972;28;20033;-93
2023/10/11 09:19:26;;;;;;;10.98;4.78;;;;;;;-143.29;100.00;62188.47;5033689;28;20039;-91
2023/10/11 09:22:05;;;;;;;10.70;4.60;;;;;;;-143.29;100.00;62188.47;5052132;28;20068;-93
2023/10/11 09:24:41;;;;;;;8.43;4.95;;;;;;;-143.29;100.00;62188.47;5053033;28;20092;-92
2023/10/11 09:27:40;;;;;;;12.23;4.82;;;;;;;-143.29;100.00;62188.47;5054562;28;20036;-91
2023/10/11 09:30:19;;;;;;;11.45;4.53;;;;;;;-143.29;100.00;62188.47;5050457;28;20033;-92
2023/10/11 09:32:48;;;;;;;14.30;5.22;;;;;;;-143.29;100.00;62188.47;5073563;28;20033;-90
2023/10/11 09:35:29;;;;;;;11.75;4.82;;;;;;;-143.29;100.00;62188.47;5045833;28;20032;-91
2023/10/11 09:37:59;;;;;;;9.02;4.32;;;;;;;-143.29;100.00;62188.47;5035623;28;20029;-92
2023/10/11 09:40:35;;;;;;;16.17;5.00;;;;;;;-143.29;100.00;62188.47;5036331;28;20028;-90
2023/10/11 09:43:01;;;;;;;12.98;4.95;;;;;;;-143.29;100.00;62188.47;5053936;28;20037;-90
2023/10/11 09:45:42;;;;;;;13.70;4.72;;;;;;;-143.29;100.00;62188.47;5054527;28;20040;-90
2023/10/11 09:48:17;;;;;;;18.73;6.22;;;;;;;-143.29;100.00;62188.47;5074221;28;20027;-91
2023/10/11 09:50:43;;;;;;;11.57;4.85;;;;;;;-143.29;100.00;62188.47;5054920;28;20056;-93
2023/10/11 09:53:11;;;;;;;17.83;5.45;;;;;;;-143.29;100.00;62188.47;5054089;28;20051;-90
2023/10/11 09:55:48;;;;;;;16.45;4.95;;;;;;;-143.29;100.00;62188.47;5053955;28;20414;-92
2023/10/11 09:58:30;;;;;;;19.48;6.70;;;;;;;-143.29;100.00;62188.47;5035859;28;20027;-88
2023/10/11 10:01:11;;;;;;;14.43;5.15;;;;;;;-143.29;100.00;62188.47;5051990;28;20444;-89
2023/10/11 10:03:44;;;;;;;18.20;5.85;;;;;;;-143.29;100.00;62188.47;5063853;28;20127;-88
2023/10/11 10:06:24;;;;;;;13.00;6.07;;;;;;;-143.29;100.00;62188.47;5053243;28;20513;-89
2023/10/11 10:09:23;;;;;;;14.05;6.47;;;;;;;-143.29;100.00;62188.47;5033740;28;20101;-90
2023/10/11 10:12:09;;;;;;;15.68;6.13;;;;;;;-143.29;100.00;62188.47;5048951;28;20040;-90
2023/10/11 10:14:36;;;;;;;21.92;7.55;;;;;;;-143.29;100.00;62188.47;5053828;28;20028;-89
2023/10/11 10:17:15;;;;;;;24.15;8.27;;;;;;;-143.29;100.00;62188.47;5035206;28;20383;-89
2023/10/11 10:19:43;;;;;;;21.77;6.30;;;;;;;-143.29;100.00;62188.47;5053168;28;20111;-89
2023/10/11 10:22:15;;;;;;;20.35;7.22;;;;;;;-143.29;100.00;62188.47;5053161;28;20021;-90
2023/10/11 10:24:43;;;;;;;;;;;;;;;-143.29;100.00;62188.47;5053962;28;20112;-89
2023/10/11 10:27:33;;;;;;;26.35;7.65;;;;;;;-143.29;100.00;62188.47;5053466;28;19919;-90
2023/10/11 10:30:00;;;;;;;23.13;7.45;;;;;;;-143.29;100.00;62188.47;5053562;28;20039;-91
2023/10/11 10:32:26;;;;;;;15.60;6.72;;;;;;;-143.29;100.00;62188.47;5052465;28;20043;-91
2023/10/11 10:35:19;;;;;;;18.63;7.32;;;;;;;-143.29;100.00;62188.47;5053644;28;20021;-91
2023/10/11 10:37:47;;;;;;;22.40;7.93;;;;;;;-143.29;100.00;62188.47;5051233;28;20028;-94
2023/10/11 10:40:26;;;;;;;17.42;7.43;;;;;;;-143.29;100.00;62188.47;5052341;28;20106;-90
2023/10/11 10:43:07;;;;;;;23.42;7.70;;;;;;;-143.29;100.00;62188.47;5070868;28;20024;-91
2023/10/11 10:45:34;;;;;;;21.65;7.43;;;;;;;-143.29;100.00;62188.47;5046130;28;20032;-89
2023/10/11 10:48:39;;;;;;;18.48;7.43;;;;;;;-143.29;100.00;62188.47;5053090;28;20017;-91
2023/10/11 10:51:05;;;;;;;21.95;7.35;;;;;;;-143.29;100.00;62188.47;5016185;28;20127;-91
2023/10/11 10:53:50;;;;;;;22.80;7.88;;;;;;;-143.29;100.00;62188.47;5053563;28;20455;-90
2023/10/11 10:56:26;;;;;;;20.75;7.68;;;;;;;-143.29;100.00;62188.47;5053260;28;20021;-91
2023/10/11 10:59:14;;;;;;;24.35;7.47;;;;;;;-143.29;100.00;62188.47;5053099;28;20021;-91
2023/10/11 11:01:40;;;;;;;20.75;8.05;;;;;;;-143.29;100.00;62188.47;5052238;28;20085;-90
2023/10/11 11:04:07;;;;;;;20.92;7.25;;;;;;;-143.29;100.00;62188.47;5051475;28;20025;-90
2023/10/11 11:06:46;;;;;;;21.75;7.45;;;;;;;-143.29;100.00;62188.47;5053252;28;20024;-90
2023/10/11 11:09:19;;;;;;;23.10;7.22;;;;;;;-143.29;100.00;62188.47;5035153;28;20487;-90
2023/10/11 11:11:53;;;;;;;27.65;8.38;;;;;;;-143.29;100.00;62188.47;5053067;28;20025;-89
2023/10/11 11:14:19;;;;;;;32.05;7.25;;;;;;;-143.29;100.00;62188.47;5053026;28;20028;-90
2023/10/11 11:16:54;;;;;;;22.85;7.20;;;;;;;-143.29;100.00;62188.47;5052931;28;20113;-90
2023/10/11 11:19:25;;;;;;;24.45;7.78;;;;;;;-143.29;100.00;62188.47;5061835;28;20029;-90
2023/10/11 11:22:06;;;;;;;22.98;7.45;;;;;;;-143.29;100.00;62188.47;5054757;28;20542;-90
2023/10/11 11:24:38;;;;;;;25.35;8.02;;;;;;;-143.29;100.00;62188.47;5072578;28;20032;-90
2023/10/11 11:27:25;;;;;;;27.35;7.80;;;;;;;-143.29;100.00;62188.47;5071586;28;20036;-90
2023/10/11 11:29:52;;;;;;;27.73;8.05;;;;;;;-143.29;100.00;62188.47;5039604;28;20020;-90
2023/10/11 11:32:37;;;;;;;25.73;8.48;;;;;;;-143.29;100.00;62188.47;5072442;28;20021;-90
2023/10/11 11:35:04;;;;;;;21.48;6.68;;;;;;;-143.29;100.00;62188.47;5072455;28;20028;-90
2023/10/11 11:37:31;;;;;;;30.67;9.80;;;;;;;-143.29;100.00;62188.47;5072500;28;20386;-90
2023/10/11 11:40:17;;;;;;;22.80;6.88;;;;;;;-143.29;100.00;62188.47;5072461;28;20020;-90
2023/10/11 11:42:47;;;;;;;19.88;6.43;;;;;;;-143.29;100.00;62188.47;5072242;28;20032;-90
2023/10/11 11:45:26;;;;;;;24.60;7.82;;;;;;;-143.29;100.00;62188.47;5069398;28;20119;-90
2023/10/11 11:47:57;;;;;;;28.77;7.47;;;;;;;-143.29;100.00;62188.47;5072516;28;20393;-90
2023/10/11 11:50:30;;;;;;;24.50;7.95;;;;;;;-143.29;100.00;62188.47;5072407;28;20016;-90
2023/10/11 11:52:57;;;;;;;26.17;7.00;;;;;;;-143.29;100.00;62188.47;5054276;28;20028;-90
2023/10/11 11:55:23;;;;;;;30.38;7.05;;;;;;;-143.29;100.00;62188.47;5072422;28;20035;-90
2023/10/11 11:57:49;;;;;;;33.03;7.07;;;;;;;-143.29;100.00;62188.47;5072463;28;20028;-90
2023/10/11 12:02:59;;;;;;;25.58;7.30;;;;;;;-143.29;100.00;62188.47;5052206;28;20021;-90
2023/10/11 12:05:27;;;;;;;25.67;7.97;;;;;;;-143.29;100.00;62188.47;5052113;28;20387;-90
2023/10/11 12:07:57;;;;;;;21.48;7.18;;;;;;;-143.29;100.00;62188.47;5052105;28;20017;-90
2023/10/11 12:10:26;;;;;;;26.38;7.38;;;;;;;-143.29;100.00;62188.47;5052145;28;20024;-90